sensor_id;sensor_type;location;lat;lon;timestamp;P1;durP1;ratioP1;P2;durP2;ratioP2
45694;SDS011;31408;45.468;9.124;2022-09-01T00:00:51;8.70;;;5.40;;
45694;SDS011;31408;45.468;9.124;2022-09-01T00:03:17;10.40;;;5.35;;
45694;SDS011;31408;45.468;9.124;2022-09-01T00:05:46;8.10;;;5.22;;
45694;SDS011;31408;45.468;9.124;2022-09-01T00:08:15;8.65;;;4.90;;
45694;SDS011;31408;45.468;9.124;2022-09-01T00:10:40;12.00;;;5.65;;
45694;SDS011;31408;45.468;9.124;2022-09-01T00:13:06;16.23;;;5.57;;
45694;SDS011;31408;45.468;9.124;2022-09-01T00:15:33;10.07;;;5.07;;
45694;SDS011;31408;45.468;9.124;2022-09-01T00:18:00;21.33;;;9.13;;
45694;SDS011;31408;45.468;9.124;2022-09-01T00:20:26;11.93;;;5.95;;
45694;SDS011;31408;45.468;9.124;2022-09-01T00:22:51;13.10;;;6.50;;
45694;SDS011;31408;45.468;9.124;2022-09-01T00:25:17;12.63;;;5.50;;
45694;SDS011;31408;45.468;9.124;2022-09-01T00:27:44;9.45;;;5.30;;
45694;SDS011;31408;45.468;9.124;2022-09-01T00:30:10;8.70;;;4.90;;
45694;SDS011;31408;45.468;9.124;2022-09-01T00:32:36;6.72;;;3.97;;
45694;SDS011;31408;45.468;9.124;2022-09-01T00:35:01;6.30;;;4.53;;
45694;SDS011;31408;45.468;9.124;2022-09-01T00:37:27;8.85;;;4.22;;
45694;SDS011;31408;45.468;9.124;2022-09-01T00:39:53;6.38;;;3.60;;
45694;SDS011;31408;45.468;9.124;2022-09-01T00:42:18;5.13;;;3.55;;
45694;SDS011;31408;45.468;9.124;2022-09-01T00:44:44;7.05;;;4.03;;
45694;SDS011;31408;45.468;9.124;2022-09-01T00:47:10;11.05;;;5.80;;
45694;SDS011;31408;45.468;9.124;2022-09-01T00:49:38;8.60;;;3.97;;
45694;SDS011;31408;45.468;9.124;2022-09-01T00:54:50;20.90;;;9.88;;
45694;SDS011;31408;45.468;9.124;2022-09-01T00:57:18;9.23;;;4.60;;
45694;SDS011;31408;45.468;9.124;2022-09-01T00:59:46;7.75;;;3.72;;
45694;SDS011;31408;45.468;9.124;2022-09-01T01:02:14;5.82;;;3.28;;
45694;SDS011;31408;45.468;9.124;2022-09-01T01:04:40;5.20;;;3.38;;
45694;SDS011;31408;45.468;9.124;2022-09-01T01:07:08;9.48;;;4.10;;
45694;SDS011;31408;45.468;9.124;2022-09-01T01:09:35;7.05;;;4.35;;
45694;SDS011;31408;45.468;9.124;2022-09-01T01:12:03;8.65;;;4.50;;
45694;SDS011;31408;45.468;9.124;2022-09-01T01:14:29;7.30;;;3.60;;
45694;SDS011;31408;45.468;9.124;2022-09-01T01:16:57;7.47;;;4.30;;
45694;SDS011;31408;45.468;9.124;2022-09-01T01:22:47;5.93;;;3.90;;
45694;SDS011;31408;45.468;9.124;2022-09-01T01:25:27;7.22;;;4.43;;
45694;SDS011;31408;45.468;9.124;2022-09-01T01:28:18;7.07;;;3.97;;
45694;SDS011;31408;45.468;9.124;2022-09-01T01:30:50;5.75;;;3.25;;
45694;SDS011;31408;45.468;9.124;2022-09-01T01:33:20;8.10;;;4.13;;
45694;SDS011;31408;45.468;9.124;2022-09-01T01:35:47;8.60;;;4.65;;
45694;SDS011;31408;45.468;9.124;2022-09-01T01:38:14;7.45;;;4.28;;
45694;SDS011;31408;45.468;9.124;2022-09-01T01:40:40;8.60;;;4.07;;
45694;SDS011;31408;45.468;9.124;2022-09-01T01:43:06;6.82;;;4.45;;
45694;SDS011;31408;45.468;9.124;2022-09-01T01:45:32;6.38;;;3.85;;
45694;SDS011;31408;45.468;9.124;2022-09-01T01:47:59;23.27;;;9.50;;
45694;SDS011;31408;45.468;9.124;2022-09-01T01:50:26;26.52;;;12.00;;
45694;SDS011;31408;45.468;9.124;2022-09-01T01:52:57;19.25;;;9.18;;
45694;SDS011;31408;45.468;9.124;2022-09-01T01:55:25;23.75;;;10.02;;
45694;SDS011;31408;45.468;9.124;2022-09-01T01:57:53;10.73;;;5.82;;
45694;SDS011;31408;45.468;9.124;2022-09-01T02:00:22;6.45;;;3.53;;
45694;SDS011;31408;45.468;9.124;2022-09-01T02:02:51;4.30;;;3.33;;
45694;SDS011;31408;45.468;9.124;2022-09-01T02:05:18;6.80;;;4.18;;
45694;SDS011;31408;45.468;9.124;2022-09-01T02:07:47;5.82;;;3.97;;
45694;SDS011;31408;45.468;9.124;2022-09-01T02:10:14;7.22;;;4.28;;
45694;SDS011;31408;45.468;9.124;2022-09-01T02:12:41;15.10;;;6.45;;
45694;SDS011;31408;45.468;9.124;2022-09-01T02:15:07;10.48;;;5.40;;
45694;SDS011;31408;45.468;9.124;2022-09-01T02:17:35;10.43;;;5.07;;
45694;SDS011;31408;45.468;9.124;2022-09-01T02:20:04;7.80;;;4.22;;
45694;SDS011;31408;45.468;9.124;2022-09-01T02:22:30;10.32;;;5.20;;
45694;SDS011;31408;45.468;9.124;2022-09-01T02:24:57;5.97;;;3.55;;
45694;SDS011;31408;45.468;9.124;2022-09-01T02:27:25;7.90;;;3.28;;
45694;SDS011;31408;45.468;9.124;2022-09-01T02:29:52;11.13;;;3.50;;
45694;SDS011;31408;45.468;9.124;2022-09-01T02:32:19;3.78;;;3.35;;
45694;SDS011;31408;45.468;9.124;2022-09-01T02:34:49;5.28;;;3.17;;
45694;SDS011;31408;45.468;9.124;2022-09-01T02:37:21;7.93;;;3.33;;
45694;SDS011;31408;45.468;9.124;2022-09-01T02:39:50;6.72;;;2.28;;
45694;SDS011;31408;45.468;9.124;2022-09-01T02:42:17;5.03;;;2.88;;
45694;SDS011;31408;45.468;9.124;2022-09-01T02:44:51;5.05;;;2.90;;
45694;SDS011;31408;45.468;9.124;2022-09-01T02:47:21;4.20;;;2.45;;
45694;SDS011;31408;45.468;9.124;2022-09-01T02:49:50;5.80;;;3.35;;
45694;SDS011;31408;45.468;9.124;2022-09-01T02:52:16;3.97;;;3.00;;
45694;SDS011;31408;45.468;9.124;2022-09-01T02:54:45;3.67;;;2.88;;
45694;SDS011;31408;45.468;9.124;2022-09-01T02:57:13;6.78;;;3.42;;
45694;SDS011;31408;45.468;9.124;2022-09-01T02:59:39;9.25;;;3.10;;
45694;SDS011;31408;45.468;9.124;2022-09-01T03:02:06;9.27;;;2.88;;
45694;SDS011;31408;45.468;9.124;2022-09-01T03:04:32;5.07;;;2.95;;
45694;SDS011;31408;45.468;9.124;2022-09-01T03:07:00;4.60;;;2.80;;
45694;SDS011;31408;45.468;9.124;2022-09-01T03:09:26;6.43;;;3.17;;
45694;SDS011;31408;45.468;9.124;2022-09-01T03:11:52;4.68;;;3.00;;
45694;SDS011;31408;45.468;9.124;2022-09-01T03:14:18;3.58;;;2.40;;
45694;SDS011;31408;45.468;9.124;2022-09-01T03:16:45;6.50;;;2.75;;
45694;SDS011;31408;45.468;9.124;2022-09-01T03:19:10;3.95;;;2.83;;
45694;SDS011;31408;45.468;9.124;2022-09-01T03:21:38;10.27;;;5.38;;
45694;SDS011;31408;45.468;9.124;2022-09-01T03:24:08;9.45;;;5.55;;
45694;SDS011;31408;45.468;9.124;2022-09-01T03:26:36;15.88;;;6.60;;
45694;SDS011;31408;45.468;9.124;2022-09-01T03:29:06;12.10;;;6.15;;
45694;SDS011;31408;45.468;9.124;2022-09-01T03:31:32;11.57;;;6.93;;
45694;SDS011;31408;45.468;9.124;2022-09-01T03:34:00;14.68;;;6.32;;
45694;SDS011;31408;45.468;9.124;2022-09-01T03:36:30;16.23;;;6.20;;
45694;SDS011;31408;45.468;9.124;2022-09-01T03:38:58;14.13;;;6.00;;
45694;SDS011;31408;45.468;9.124;2022-09-01T03:41:25;13.82;;;5.90;;
45694;SDS011;31408;45.468;9.124;2022-09-01T03:43:55;11.90;;;6.28;;
45694;SDS011;31408;45.468;9.124;2022-09-01T03:46:25;12.30;;;6.40;;
45694;SDS011;31408;45.468;9.124;2022-09-01T03:48:52;10.25;;;5.90;;
45694;SDS011;31408;45.468;9.124;2022-09-01T03:51:20;10.77;;;6.35;;
45694;SDS011;31408;45.468;9.124;2022-09-01T03:53:47;12.63;;;6.47;;
45694;SDS011;31408;45.468;9.124;2022-09-01T03:56:13;13.55;;;6.47;;
45694;SDS011;31408;45.468;9.124;2022-09-01T03:58:39;12.93;;;7.35;;
45694;SDS011;31408;45.468;9.124;2022-09-01T04:01:09;13.63;;;6.88;;
45694;SDS011;31408;45.468;9.124;2022-09-01T04:03:36;13.10;;;6.63;;
45694;SDS011;31408;45.468;9.124;2022-09-01T04:06:03;13.00;;;7.40;;
45694;SDS011;31408;45.468;9.124;2022-09-01T04:08:30;15.43;;;7.13;;
45694;SDS011;31408;45.468;9.124;2022-09-01T04:10:57;13.38;;;7.45;;
45694;SDS011;31408;45.468;9.124;2022-09-01T04:13:26;12.23;;;6.53;;
45694;SDS011;31408;45.468;9.124;2022-09-01T04:15:55;11.55;;;7.00;;
45694;SDS011;31408;45.468;9.124;2022-09-01T04:18:21;11.25;;;6.28;;
45694;SDS011;31408;45.468;9.124;2022-09-01T04:20:55;12.77;;;6.28;;
45694;SDS011;31408;45.468;9.124;2022-09-01T04:23:32;12.07;;;6.03;;
45694;SDS011;31408;45.468;9.124;2022-09-01T04:26:10;10.35;;;6.00;;
45694;SDS011;31408;45.468;9.124;2022-09-01T04:28:40;11.73;;;6.95;;
45694;SDS011;31408;45.468;9.124;2022-09-01T04:31:10;14.75;;;7.05;;
45694;SDS011;31408;45.468;9.124;2022-09-01T04:33:42;11.57;;;6.47;;
45694;SDS011;31408;45.468;9.124;2022-09-01T04:38:51;15.27;;;6.90;;
45694;SDS011;31408;45.468;9.124;2022-09-01T04:41:19;9.75;;;6.38;;
45694;SDS011;31408;45.468;9.124;2022-09-01T04:43:46;16.90;;;7.22;;
45694;SDS011;31408;45.468;9.124;2022-09-01T04:46:13;12.38;;;6.15;;
45694;SDS011;31408;45.468;9.124;2022-09-01T04:48:40;14.40;;;6.78;;
45694;SDS011;31408;45.468;9.124;2022-09-01T04:51:08;15.88;;;7.22;;
45694;SDS011;31408;45.468;9.124;2022-09-01T04:53:48;12.40;;;6.60;;
45694;SDS011;31408;45.468;9.124;2022-09-01T04:56:16;13.93;;;6.80;;
45694;SDS011;31408;45.468;9.124;2022-09-01T04:58:47;11.30;;;6.70;;
45694;SDS011;31408;45.468;9.124;2022-09-01T05:01:14;12.48;;;6.75;;
45694;SDS011;31408;45.468;9.124;2022-09-01T05:03:42;11.20;;;6.53;;
45694;SDS011;31408;45.468;9.124;2022-09-01T05:06:14;14.48;;;7.13;;
45694;SDS011;31408;45.468;9.124;2022-09-01T05:08:46;21.88;;;6.93;;
45694;SDS011;31408;45.468;9.124;2022-09-01T05:11:21;11.48;;;6.00;;
45694;SDS011;31408;45.468;9.124;2022-09-01T05:13:48;12.27;;;6.47;;
45694;SDS011;31408;45.468;9.124;2022-09-01T05:16:16;9.80;;;5.43;;
45694;SDS011;31408;45.468;9.124;2022-09-01T05:18:46;13.15;;;6.13;;
45694;SDS011;31408;45.468;9.124;2022-09-01T05:21:14;14.15;;;8.05;;
45694;SDS011;31408;45.468;9.124;2022-09-01T05:23:42;11.13;;;6.55;;
45694;SDS011;31408;45.468;9.124;2022-09-01T05:26:16;12.65;;;5.80;;
45694;SDS011;31408;45.468;9.124;2022-09-01T05:28:44;9.90;;;5.10;;
45694;SDS011;31408;45.468;9.124;2022-09-01T05:31:12;10.77;;;5.60;;
45694;SDS011;31408;45.468;9.124;2022-09-01T05:33:38;18.08;;;6.72;;
45694;SDS011;31408;45.468;9.124;2022-09-01T05:36:13;9.32;;;6.10;;
45694;SDS011;31408;45.468;9.124;2022-09-01T05:38:42;11.50;;;5.63;;
45694;SDS011;31408;45.468;9.124;2022-09-01T05:41:10;12.30;;;5.40;;
45694;SDS011;31408;45.468;9.124;2022-09-01T05:43:45;8.75;;;5.32;;
45694;SDS011;31408;45.468;9.124;2022-09-01T05:48:41;12.02;;;5.57;;
45694;SDS011;31408;45.468;9.124;2022-09-01T05:51:08;8.52;;;5.78;;
45694;SDS011;31408;45.468;9.124;2022-09-01T05:53:35;17.00;;;6.53;;
45694;SDS011;31408;45.468;9.124;2022-09-01T05:56:05;14.07;;;4.80;;
45694;SDS011;31408;45.468;9.124;2022-09-01T05:58:34;8.48;;;4.53;;
45694;SDS011;31408;45.468;9.124;2022-09-01T06:01:00;6.90;;;3.75;;
45694;SDS011;31408;45.468;9.124;2022-09-01T06:03:26;6.35;;;3.45;;
45694;SDS011;31408;45.468;9.124;2022-09-01T06:05:53;12.57;;;4.63;;
45694;SDS011;31408;45.468;9.124;2022-09-01T06:08:21;7.40;;;4.97;;
45694;SDS011;31408;45.468;9.124;2022-09-01T06:10:48;11.40;;;4.97;;
45694;SDS011;31408;45.468;9.124;2022-09-01T06:13:15;13.80;;;5.53;;
45694;SDS011;31408;45.468;9.124;2022-09-01T06:15:41;9.98;;;4.93;;
45694;SDS011;31408;45.468;9.124;2022-09-01T06:18:09;11.40;;;6.20;;
45694;SDS011;31408;45.468;9.124;2022-09-01T06:20:45;6.85;;;4.55;;
45694;SDS011;31408;45.468;9.124;2022-09-01T06:23:12;8.93;;;4.35;;
45694;SDS011;31408;45.468;9.124;2022-09-01T06:25:40;9.60;;;5.35;;
45694;SDS011;31408;45.468;9.124;2022-09-01T06:28:07;8.45;;;4.50;;
45694;SDS011;31408;45.468;9.124;2022-09-01T06:30:36;8.05;;;4.30;;
45694;SDS011;31408;45.468;9.124;2022-09-01T06:33:07;10.13;;;4.32;;
45694;SDS011;31408;45.468;9.124;2022-09-01T06:35:37;9.98;;;4.63;;
45694;SDS011;31408;45.468;9.124;2022-09-01T06:38:04;8.20;;;4.13;;
45694;SDS011;31408;45.468;9.124;2022-09-01T06:40:38;6.15;;;3.28;;
45694;SDS011;31408;45.468;9.124;2022-09-01T06:43:06;9.30;;;4.10;;
45694;SDS011;31408;45.468;9.124;2022-09-01T06:45:38;7.38;;;4.43;;
45694;SDS011;31408;45.468;9.124;2022-09-01T06:48:05;5.65;;;3.55;;
45694;SDS011;31408;45.468;9.124;2022-09-01T06:50:31;4.47;;;3.05;;
45694;SDS011;31408;45.468;9.124;2022-09-01T06:52:57;7.25;;;3.85;;
45694;SDS011;31408;45.468;9.124;2022-09-01T06:55:38;6.50;;;3.05;;
45694;SDS011;31408;45.468;9.124;2022-09-01T06:58:05;6.72;;;3.38;;
45694;SDS011;31408;45.468;9.124;2022-09-01T07:00:32;4.53;;;2.33;;
45694;SDS011;31408;45.468;9.124;2022-09-01T07:02:59;7.75;;;4.38;;
45694;SDS011;31408;45.468;9.124;2022-09-01T07:05:43;9.20;;;3.55;;
45694;SDS011;31408;45.468;9.124;2022-09-01T07:08:11;4.95;;;2.90;;
45694;SDS011;31408;45.468;9.124;2022-09-01T07:11:06;6.13;;;3.13;;
45694;SDS011;31408;45.468;9.124;2022-09-01T07:13:34;6.68;;;3.30;;
45694;SDS011;31408;45.468;9.124;2022-09-01T07:16:01;5.10;;;3.03;;
45694;SDS011;31408;45.468;9.124;2022-09-01T07:18:35;5.40;;;3.30;;
45694;SDS011;31408;45.468;9.124;2022-09-01T07:21:04;6.47;;;3.60;;
45694;SDS011;31408;45.468;9.124;2022-09-01T07:23:33;9.48;;;3.35;;
45694;SDS011;31408;45.468;9.124;2022-09-01T07:25:58;6.15;;;3.13;;
45694;SDS011;31408;45.468;9.124;2022-09-01T07:28:32;6.82;;;4.05;;
45694;SDS011;31408;45.468;9.124;2022-09-01T07:30:58;11.65;;;3.28;;
45694;SDS011;31408;45.468;9.124;2022-09-01T07:33:25;5.20;;;3.25;;
45694;SDS011;31408;45.468;9.124;2022-09-01T07:35:54;7.22;;;3.15;;
45694;SDS011;31408;45.468;9.124;2022-09-01T07:38:21;5.93;;;2.92;;
45694;SDS011;31408;45.468;9.124;2022-09-01T07:40:48;5.25;;;3.42;;
45694;SDS011;31408;45.468;9.124;2022-09-01T07:43:56;3.60;;;3.17;;
45694;SDS011;31408;45.468;9.124;2022-09-01T07:46:40;8.68;;;3.08;;
45694;SDS011;31408;45.468;9.124;2022-09-01T07:49:16;5.70;;;3.05;;
45694;SDS011;31408;45.468;9.124;2022-09-01T07:51:43;5.55;;;2.72;;
45694;SDS011;31408;45.468;9.124;2022-09-01T07:54:09;13.52;;;3.33;;
45694;SDS011;31408;45.468;9.124;2022-09-01T07:56:38;5.57;;;3.40;;
45694;SDS011;31408;45.468;9.124;2022-09-01T07:59:04;5.38;;;3.60;;
45694;SDS011;31408;45.468;9.124;2022-09-01T08:01:31;4.60;;;2.97;;
45694;SDS011;31408;45.468;9.124;2022-09-01T08:03:58;5.57;;;3.30;;
45694;SDS011;31408;45.468;9.124;2022-09-01T08:06:26;6.43;;;3.55;;
45694;SDS011;31408;45.468;9.124;2022-09-01T08:08:53;9.77;;;3.78;;
45694;SDS011;31408;45.468;9.124;2022-09-01T08:11:22;7.05;;;4.10;;
45694;SDS011;31408;45.468;9.124;2022-09-01T08:13:51;8.35;;;4.32;;
45694;SDS011;31408;45.468;9.124;2022-09-01T08:16:17;5.60;;;3.78;;
45694;SDS011;31408;45.468;9.124;2022-09-01T08:18:43;10.73;;;4.40;;
45694;SDS011;31408;45.468;9.124;2022-09-01T08:21:15;9.18;;;4.47;;
45694;SDS011;31408;45.468;9.124;2022-09-01T08:24:01;7.80;;;3.78;;
45694;SDS011;31408;45.468;9.124;2022-09-01T08:26:28;9.93;;;4.85;;
45694;SDS011;31408;45.468;9.124;2022-09-01T08:28:54;8.50;;;4.32;;
45694;SDS011;31408;45.468;9.124;2022-09-01T08:31:26;7.13;;;4.07;;
45694;SDS011;31408;45.468;9.124;2022-09-01T08:33:52;9.10;;;3.58;;
45694;SDS011;31408;45.468;9.124;2022-09-01T08:36:19;7.35;;;4.13;;
45694;SDS011;31408;45.468;9.124;2022-09-01T08:38:44;5.28;;;3.10;;
45694;SDS011;31408;45.468;9.124;2022-09-01T08:41:15;5.72;;;3.10;;
45694;SDS011;31408;45.468;9.124;2022-09-01T08:43:47;6.70;;;3.70;;
45694;SDS011;31408;45.468;9.124;2022-09-01T08:48:50;4.45;;;3.38;;
45694;SDS011;31408;45.468;9.124;2022-09-01T08:54:00;5.95;;;3.58;;
45694;SDS011;31408;45.468;9.124;2022-09-01T08:56:33;7.13;;;4.22;;
45694;SDS011;31408;45.468;9.124;2022-09-01T08:59:01;11.80;;;3.90;;
45694;SDS011;31408;45.468;9.124;2022-09-01T09:02:07;13.05;;;4.07;;
45694;SDS011;31408;45.468;9.124;2022-09-01T09:09:51;10.18;;;4.97;;
45694;SDS011;31408;45.468;9.124;2022-09-01T09:15:41;12.50;;;6.43;;
45694;SDS011;31408;45.468;9.124;2022-09-01T09:18:20;8.38;;;5.07;;
45694;SDS011;31408;45.468;9.124;2022-09-01T09:20:53;11.45;;;5.45;;
45694;SDS011;31408;45.468;9.124;2022-09-01T09:23:28;11.88;;;5.50;;
45694;SDS011;31408;45.468;9.124;2022-09-01T09:25:57;6.32;;;4.15;;
45694;SDS011;31408;45.468;9.124;2022-09-01T09:28:22;14.80;;;6.47;;
45694;SDS011;31408;45.468;9.124;2022-09-01T09:30:48;9.52;;;5.38;;
45694;SDS011;31408;45.468;9.124;2022-09-01T09:33:33;5.28;;;3.85;;
45694;SDS011;31408;45.468;9.124;2022-09-01T09:38:43;11.60;;;4.22;;
45694;SDS011;31408;45.468;9.124;2022-09-01T09:41:14;9.15;;;4.60;;
45694;SDS011;31408;45.468;9.124;2022-09-01T09:46:27;7.90;;;4.50;;
45694;SDS011;31408;45.468;9.124;2022-09-01T09:54:27;10.60;;;4.88;;
45694;SDS011;31408;45.468;9.124;2022-09-01T09:57:14;9.88;;;5.53;;
45694;SDS011;31408;45.468;9.124;2022-09-01T09:59:43;8.80;;;4.88;;
45694;SDS011;31408;45.468;9.124;2022-09-01T10:02:16;10.18;;;4.78;;
45694;SDS011;31408;45.468;9.124;2022-09-01T10:04:52;7.65;;;4.70;;
45694;SDS011;31408;45.468;9.124;2022-09-01T10:07:21;11.38;;;5.75;;
45694;SDS011;31408;45.468;9.124;2022-09-01T10:09:47;11.98;;;5.35;;
45694;SDS011;31408;45.468;9.124;2022-09-01T10:12:13;7.55;;;4.85;;
45694;SDS011;31408;45.468;9.124;2022-09-01T10:14:47;7.82;;;4.88;;
45694;SDS011;31408;45.468;9.124;2022-09-01T10:17:18;11.88;;;5.88;;
45694;SDS011;31408;45.468;9.124;2022-09-01T10:19:56;10.55;;;5.78;;
45694;SDS011;31408;45.468;9.124;2022-09-01T10:22:29;11.25;;;5.13;;
45694;SDS011;31408;45.468;9.124;2022-09-01T10:24:55;5.63;;;3.83;;
45694;SDS011;31408;45.468;9.124;2022-09-01T10:27:22;7.85;;;4.65;;
45694;SDS011;31408;45.468;9.124;2022-09-01T10:35:11;8.15;;;5.53;;
45694;SDS011;31408;45.468;9.124;2022-09-01T10:37:42;8.88;;;5.10;;
45694;SDS011;31408;45.468;9.124;2022-09-01T10:40:09;10.63;;;5.75;;
45694;SDS011;31408;45.468;9.124;2022-09-01T10:42:35;11.90;;;5.93;;
45694;SDS011;31408;45.468;9.124;2022-09-01T10:45:01;7.75;;;4.80;;
45694;SDS011;31408;45.468;9.124;2022-09-01T10:47:32;8.60;;;5.40;;
45694;SDS011;31408;45.468;9.124;2022-09-01T10:50:21;8.00;;;5.25;;
45694;SDS011;31408;45.468;9.124;2022-09-01T10:52:55;8.05;;;5.47;;
45694;SDS011;31408;45.468;9.124;2022-09-01T10:55:25;8.52;;;4.90;;
45694;SDS011;31408;45.468;9.124;2022-09-01T11:10:55;8.80;;;5.40;;
45694;SDS011;31408;45.468;9.124;2022-09-01T11:16:25;11.40;;;5.90;;
45694;SDS011;31408;45.468;9.124;2022-09-01T11:18:53;9.95;;;5.43;;
45694;SDS011;31408;45.468;9.124;2022-09-01T11:21:23;8.65;;;5.05;;
45694;SDS011;31408;45.468;9.124;2022-09-01T11:26:43;9.30;;;4.65;;
45694;SDS011;31408;45.468;9.124;2022-09-01T11:29:48;8.73;;;4.85;;
45694;SDS011;31408;45.468;9.124;2022-09-01T11:32:14;9.80;;;5.07;;
45694;SDS011;31408;45.468;9.124;2022-09-01T11:34:40;10.27;;;4.07;;
45694;SDS011;31408;45.468;9.124;2022-09-01T11:37:11;9.00;;;4.80;;
45694;SDS011;31408;45.468;9.124;2022-09-01T11:39:41;7.45;;;4.28;;
45694;SDS011;31408;45.468;9.124;2022-09-01T11:47:10;11.05;;;5.63;;
45694;SDS011;31408;45.468;9.124;2022-09-01T11:52:25;8.32;;;4.65;;
45694;SDS011;31408;45.468;9.124;2022-09-01T11:54:54;11.52;;;5.32;;
45694;SDS011;31408;45.468;9.124;2022-09-01T11:57:21;10.48;;;6.10;;
45694;SDS011;31408;45.468;9.124;2022-09-01T11:59:54;10.05;;;5.40;;
45694;SDS011;31408;45.468;9.124;2022-09-01T12:02:22;14.98;;;6.22;;
45694;SDS011;31408;45.468;9.124;2022-09-01T12:04:51;8.88;;;5.30;;
45694;SDS011;31408;45.468;9.124;2022-09-01T12:13:11;8.60;;;4.05;;
45694;SDS011;31408;45.468;9.124;2022-09-01T12:15:50;5.70;;;3.70;;
45694;SDS011;31408;45.468;9.124;2022-09-01T12:18:25;10.00;;;4.88;;
45694;SDS011;31408;45.468;9.124;2022-09-01T12:23:25;6.30;;;3.00;;
45694;SDS011;31408;45.468;9.124;2022-09-01T12:25:52;7.00;;;3.88;;
45694;SDS011;31408;45.468;9.124;2022-09-01T12:28:19;6.82;;;3.75;;
45694;SDS011;31408;45.468;9.124;2022-09-01T12:30:47;8.27;;;3.50;;
45694;SDS011;31408;45.468;9.124;2022-09-01T12:33:14;8.57;;;4.57;;
45694;SDS011;31408;45.468;9.124;2022-09-01T12:35:42;7.63;;;4.40;;
45694;SDS011;31408;45.468;9.124;2022-09-01T12:40:44;7.93;;;3.33;;
45694;SDS011;31408;45.468;9.124;2022-09-01T12:43:10;8.63;;;4.00;;
45694;SDS011;31408;45.468;9.124;2022-09-01T12:48:01;6.93;;;4.05;;
45694;SDS011;31408;45.468;9.124;2022-09-01T12:52:53;5.60;;;3.53;;
45694;SDS011;31408;45.468;9.124;2022-09-01T12:55:30;7.32;;;3.47;;
45694;SDS011;31408;45.468;9.124;2022-09-01T12:57:58;6.60;;;2.67;;
45694;SDS011;31408;45.468;9.124;2022-09-01T13:05:40;5.25;;;3.08;;
45694;SDS011;31408;45.468;9.124;2022-09-01T13:10:35;5.47;;;2.60;;
45694;SDS011;31408;45.468;9.124;2022-09-01T13:13:04;4.18;;;3.28;;
45694;SDS011;31408;45.468;9.124;2022-09-01T13:15:31;7.25;;;3.25;;
45694;SDS011;31408;45.468;9.124;2022-09-01T13:17:57;2.85;;;2.55;;
45694;SDS011;31408;45.468;9.124;2022-09-01T13:20:22;4.90;;;3.47;;
45694;SDS011;31408;45.468;9.124;2022-09-01T13:22:48;5.07;;;2.92;;
45694;SDS011;31408;45.468;9.124;2022-09-01T13:25:15;4.13;;;3.10;;
45694;SDS011;31408;45.468;9.124;2022-09-01T13:27:42;6.43;;;3.17;;
45694;SDS011;31408;45.468;9.124;2022-09-01T13:30:09;7.75;;;2.65;;
45694;SDS011;31408;45.468;9.124;2022-09-01T13:32:36;4.63;;;2.72;;
45694;SDS011;31408;45.468;9.124;2022-09-01T13:35:01;5.10;;;2.75;;
45694;SDS011;31408;45.468;9.124;2022-09-01T13:37:27;3.92;;;3.00;;
45694;SDS011;31408;45.468;9.124;2022-09-01T13:39:52;5.07;;;2.92;;
45694;SDS011;31408;45.468;9.124;2022-09-01T13:42:18;2.90;;;2.33;;
45694;SDS011;31408;45.468;9.124;2022-09-01T13:44:44;7.75;;;2.70;;
45694;SDS011;31408;45.468;9.124;2022-09-01T13:47:11;5.38;;;2.38;;
45694;SDS011;31408;45.468;9.124;2022-09-01T13:49:36;2.55;;;2.17;;
45694;SDS011;31408;45.468;9.124;2022-09-01T13:52:02;2.78;;;1.73;;
45694;SDS011;31408;45.468;9.124;2022-09-01T13:54:27;3.22;;;2.28;;
45694;SDS011;31408;45.468;9.124;2022-09-01T13:56:53;5.72;;;2.80;;
45694;SDS011;31408;45.468;9.124;2022-09-01T13:59:18;3.45;;;2.42;;
45694;SDS011;31408;45.468;9.124;2022-09-01T14:01:44;3.38;;;2.55;;
45694;SDS011;31408;45.468;9.124;2022-09-01T14:04:10;6.00;;;2.75;;
45694;SDS011;31408;45.468;9.124;2022-09-01T14:06:40;3.10;;;2.38;;
45694;SDS011;31408;45.468;9.124;2022-09-01T14:09:12;3.63;;;2.47;;
45694;SDS011;31408;45.468;9.124;2022-09-01T14:11:38;3.25;;;2.60;;
45694;SDS011;31408;45.468;9.124;2022-09-01T14:14:04;2.70;;;2.13;;
45694;SDS011;31408;45.468;9.124;2022-09-01T14:16:30;4.63;;;2.88;;
45694;SDS011;31408;45.468;9.124;2022-09-01T14:18:56;3.33;;;2.45;;
45694;SDS011;31408;45.468;9.124;2022-09-01T14:21:21;3.85;;;2.30;;
45694;SDS011;31408;45.468;9.124;2022-09-01T14:23:47;2.08;;;1.80;;
45694;SDS011;31408;45.468;9.124;2022-09-01T14:26:14;3.17;;;2.33;;
45694;SDS011;31408;45.468;9.124;2022-09-01T14:28:40;3.75;;;2.40;;
45694;SDS011;31408;45.468;9.124;2022-09-01T14:31:09;3.80;;;2.30;;
45694;SDS011;31408;45.468;9.124;2022-09-01T14:33:36;5.75;;;1.90;;
45694;SDS011;31408;45.468;9.124;2022-09-01T14:36:02;2.75;;;1.83;;
45694;SDS011;31408;45.468;9.124;2022-09-01T14:38:28;3.05;;;2.10;;
45694;SDS011;31408;45.468;9.124;2022-09-01T14:40:54;2.33;;;2.00;;
45694;SDS011;31408;45.468;9.124;2022-09-01T14:43:20;3.85;;;2.38;;
45694;SDS011;31408;45.468;9.124;2022-09-01T14:45:46;2.60;;;1.90;;
45694;SDS011;31408;45.468;9.124;2022-09-01T14:48:13;2.40;;;1.73;;
45694;SDS011;31408;45.468;9.124;2022-09-01T14:50:42;2.33;;;1.90;;
45694;SDS011;31408;45.468;9.124;2022-09-01T14:53:10;2.70;;;1.88;;
45694;SDS011;31408;45.468;9.124;2022-09-01T14:55:36;4.63;;;2.30;;
45694;SDS011;31408;45.468;9.124;2022-09-01T14:58:01;4.72;;;2.00;;
45694;SDS011;31408;45.468;9.124;2022-09-01T15:00:28;2.90;;;1.67;;
45694;SDS011;31408;45.468;9.124;2022-09-01T15:02:54;3.13;;;1.50;;
45694;SDS011;31408;45.468;9.124;2022-09-01T15:05:20;1.40;;;1.17;;
45694;SDS011;31408;45.468;9.124;2022-09-01T15:07:46;2.15;;;1.48;;
45694;SDS011;31408;45.468;9.124;2022-09-01T15:10:13;6.57;;;1.75;;
45694;SDS011;31408;45.468;9.124;2022-09-01T15:12:40;3.70;;;1.40;;
45694;SDS011;31408;45.468;9.124;2022-09-01T15:15:06;2.33;;;1.40;;
45694;SDS011;31408;45.468;9.124;2022-09-01T15:17:32;5.38;;;1.65;;
45694;SDS011;31408;45.468;9.124;2022-09-01T15:19:59;3.17;;;1.40;;
45694;SDS011;31408;45.468;9.124;2022-09-01T15:22:45;2.13;;;1.08;;
45694;SDS011;31408;45.468;9.124;2022-09-01T15:25:11;1.25;;;1.10;;
45694;SDS011;31408;45.468;9.124;2022-09-01T15:27:37;1.50;;;0.98;;
45694;SDS011;31408;45.468;9.124;2022-09-01T15:30:03;1.25;;;1.10;;
45694;SDS011;31408;45.468;9.124;2022-09-01T15:32:40;1.13;;;1.02;;
45694;SDS011;31408;45.468;9.124;2022-09-01T15:35:09;2.47;;;0.98;;
45694;SDS011;31408;45.468;9.124;2022-09-01T15:37:35;1.42;;;1.00;;
45694;SDS011;31408;45.468;9.124;2022-09-01T15:40:02;2.45;;;1.23;;
45694;SDS011;31408;45.468;9.124;2022-09-01T15:42:28;1.38;;;0.85;;
45694;SDS011;31408;45.468;9.124;2022-09-01T15:44:53;1.15;;;0.63;;
45694;SDS011;31408;45.468;9.124;2022-09-01T15:47:19;0.80;;;0.80;;
45694;SDS011;31408;45.468;9.124;2022-09-01T15:49:44;1.98;;;0.98;;
45694;SDS011;31408;45.468;9.124;2022-09-01T15:52:10;2.08;;;0.77;;
45694;SDS011;31408;45.468;9.124;2022-09-01T15:54:36;0.85;;;0.75;;
45694;SDS011;31408;45.468;9.124;2022-09-01T15:57:02;0.70;;;0.70;;
45694;SDS011;31408;45.468;9.124;2022-09-01T15:59:28;3.17;;;1.00;;
45694;SDS011;31408;45.468;9.124;2022-09-01T16:01:54;0.80;;;0.75;;
45694;SDS011;31408;45.468;9.124;2022-09-01T16:04:19;0.85;;;0.85;;
45694;SDS011;31408;45.468;9.124;2022-09-01T16:06:45;3.22;;;1.40;;
45694;SDS011;31408;45.468;9.124;2022-09-01T16:09:11;1.17;;;0.93;;
45694;SDS011;31408;45.468;9.124;2022-09-01T16:11:38;1.40;;;1.15;;
45694;SDS011;31408;45.468;9.124;2022-09-01T16:14:04;1.23;;;0.88;;
45694;SDS011;31408;45.468;9.124;2022-09-01T16:19:32;1.17;;;0.85;;
45694;SDS011;31408;45.468;9.124;2022-09-01T16:25:15;1.42;;;1.15;;
45694;SDS011;31408;45.468;9.124;2022-09-01T16:27:44;1.00;;;0.88;;
45694;SDS011;31408;45.468;9.124;2022-09-01T16:30:12;0.80;;;0.80;;